sensor_id;sensor_type;location;lat;lon;timestamp;temperature;humidity
9949;DHT22;5013;51.840;8.276;2023-01-26T00:01:53;-0.90;99.90
9949;DHT22;5013;51.840;8.276;2023-01-26T00:04:19;-0.90;99.90
9949;DHT22;5013;51.840;8.276;2023-01-26T00:06:45;-1.00;1.00
9949;DHT22;5013;51.840;8.276;2023-01-26T00:09:14;-1.00;99.90
9949;DHT22;5013;51.840;8.276;2023-01-26T00:11:40;-1.00;99.90
9949;DHT22;5013;51.840;8.276;2023-01-26T00:14:05;-1.00;99.90
9949;DHT22;5013;51.840;8.276;2023-01-26T00:16:31;-1.10;20.30
9949;DHT22;5013;51.840;8.276;2023-01-26T00:18:57;-1.00;99.90
9949;DHT22;5013;51.840;8.276;2023-01-26T00:21:23;-1.00;99.90
9949;DHT22;5013;51.840;8.276;2023-01-26T00:23:50;-1.00;1.00
9949;DHT22;5013;51.840;8.276;2023-01-26T00:26:21;-1.00;1.00
9949;DHT22;5013;51.840;8.276;2023-01-26T00:28:47;-1.00;1.00
9949;DHT22;5013;51.840;8.276;2023-01-26T00:31:18;-1.00;1.00
9949;DHT22;5013;51.840;8.276;2023-01-26T00:33:44;-1.00;99.90
9949;DHT22;5013;51.840;8.276;2023-01-26T00:36:10;-1.10;99.90
9949;DHT22;5013;51.840;8.276;2023-01-26T00:38:36;-1.00;1.00
9949;DHT22;5013;51.840;8.276;2023-01-26T00:41:02;-1.00;1.00
9949;DHT22;5013;51.840;8.276;2023-01-26T00:43:27;-1.00;99.90
9949;DHT22;5013;51.840;8.276;2023-01-26T00:45:53;-1.00;1.00
9949;DHT22;5013;51.840;8.276;2023-01-26T00:48:18;-1.00;99.90
9949;DHT22;5013;51.840;8.276;2023-01-26T00:50:44;-1.00;1.00
9949;DHT22;5013;51.840;8.276;2023-01-26T00:53:10;-1.00;1.00
9949;DHT22;5013;51.840;8.276;2023-01-26T00:55:36;-0.90;1.00
9949;DHT22;5013;51.840;8.276;2023-01-26T00:58:06;-0.90;1.00
9949;DHT22;5013;51.840;8.276;2023-01-26T01:00:34;-0.90;1.00
9949;DHT22;5013;51.840;8.276;2023-01-26T01:03:00;-1.00;99.90
9949;DHT22;5013;51.840;8.276;2023-01-26T01:05:27;-1.00;1.00
9949;DHT22;5013;51.840;8.276;2023-01-26T01:07:53;-0.90;99.90
9949;DHT22;5013;51.840;8.276;2023-01-26T01:10:19;-0.90;99.90
9949;DHT22;5013;51.840;8.276;2023-01-26T01:12:44;-0.90;99.90
9949;DHT22;5013;51.840;8.276;2023-01-26T01:15:10;-0.90;1.00
9949;DHT22;5013;51.840;8.276;2023-01-26T01:17:36;-0.90;1.00
9949;DHT22;5013;51.840;8.276;2023-01-26T01:20:06;-1.00;99.90
9949;DHT22;5013;51.840;8.276;2023-01-26T01:22:33;-0.90;1.00
9949;DHT22;5013;51.840;8.276;2023-01-26T01:24:59;-0.80;1.00
9949;DHT22;5013;51.840;8.276;2023-01-26T01:27:25;-0.80;1.00
9949;DHT22;5013;51.840;8.276;2023-01-26T01:29:51;-0.80;1.00
9949;DHT22;5013;51.840;8.276;2023-01-26T01:32:17;-0.80;99.90
9949;DHT22;5013;51.840;8.276;2023-01-26T01:34:46;-0.90;1.00
9949;DHT22;5013;51.840;8.276;2023-01-26T01:37:11;-0.90;1.00
9949;DHT22;5013;51.840;8.276;2023-01-26T01:39:37;-0.90;1.00
9949;DHT22;5013;51.840;8.276;2023-01-26T01:42:03;-0.80;1.00
9949;DHT22;5013;51.840;8.276;2023-01-26T01:44:28;-0.70;1.00
9949;DHT22;5013;51.840;8.276;2023-01-26T01:47:03;-0.80;1.00
9949;DHT22;5013;51.840;8.276;2023-01-26T01:49:36;-0.70;1.00
9949;DHT22;5013;51.840;8.276;2023-01-26T01:52:13;-0.70;1.00
9949;DHT22;5013;51.840;8.276;2023-01-26T01:55:03;-0.70;1.00
9949;DHT22;5013;51.840;8.276;2023-01-26T01:57:37;-0.70;1.00
9949;DHT22;5013;51.840;8.276;2023-01-26T02:00:13;-0.70;1.00
9949;DHT22;5013;51.840;8.276;2023-01-26T02:02:42;-0.80;1.00
9949;DHT22;5013;51.840;8.276;2023-01-26T02:05:24;-0.70;99.90
9949;DHT22;5013;51.840;8.276;2023-01-26T02:07:51;-0.70;75.10
9949;DHT22;5013;51.840;8.276;2023-01-26T02:10:19;-0.80;99.90
9949;DHT22;5013;51.840;8.276;2023-01-26T02:12:49;-0.70;99.90
9949;DHT22;5013;51.840;8.276;2023-01-26T02:15:16;-0.70;99.90
9949;DHT22;5013;51.840;8.276;2023-01-26T02:17:41;-0.70;99.90
9949;DHT22;5013;51.840;8.276;2023-01-26T02:28:04;-0.60;99.90
9949;DHT22;5013;51.840;8.276;2023-01-26T02:30:30;-0.70;99.90
9949;DHT22;5013;51.840;8.276;2023-01-26T02:32:56;-0.70;1.00
9949;DHT22;5013;51.840;8.276;2023-01-26T02:35:22;-0.80;1.00
9949;DHT22;5013;51.840;8.276;2023-01-26T02:37:48;-0.60;1.00
9949;DHT22;5013;51.840;8.276;2023-01-26T02:40:35;-0.70;1.00
9949;DHT22;5013;51.840;8.276;2023-01-26T02:43:02;-0.70;1.00
9949;DHT22;5013;51.840;8.276;2023-01-26T02:45:29;-0.60;1.00
9949;DHT22;5013;51.840;8.276;2023-01-26T02:47:55;-0.60;1.00
9949;DHT22;5013;51.840;8.276;2023-01-26T02:50:22;-0.60;1.00
9949;DHT22;5013;51.840;8.276;2023-01-26T02:52:48;-0.60;1.00
9949;DHT22;5013;51.840;8.276;2023-01-26T02:55:13;-0.60;1.00
9949;DHT22;5013;51.840;8.276;2023-01-26T02:58:07;-0.60;1.00
9949;DHT22;5013;51.840;8.276;2023-01-26T03:00:35;-0.60;1.00
9949;DHT22;5013;51.840;8.276;2023-01-26T03:03:13;-0.60;1.00
9949;DHT22;5013;51.840;8.276;2023-01-26T03:05:39;-0.60;1.00
9949;DHT22;5013;51.840;8.276;2023-01-26T03:08:04;-0.60;1.00
9949;DHT22;5013;51.840;8.276;2023-01-26T03:10:31;-0.60;1.00
9949;DHT22;5013;51.840;8.276;2023-01-26T03:12:56;-0.60;1.00
9949;DHT22;5013;51.840;8.276;2023-01-26T03:15:23;-0.60;1.00
9949;DHT22;5013;51.840;8.276;2023-01-26T03:18:15;-0.60;1.00
9949;DHT22;5013;51.840;8.276;2023-01-26T03:21:06;-0.70;1.00
9949;DHT22;5013;51.840;8.276;2023-01-26T03:23:50;-0.70;1.00
9949;DHT22;5013;51.840;8.276;2023-01-26T03:26:35;-0.70;1.00
9949;DHT22;5013;51.840;8.276;2023-01-26T03:29:20;-0.70;1.00
9949;DHT22;5013;51.840;8.276;2023-01-26T03:31:46;-0.70;1.00
9949;DHT22;5013;51.840;8.276;2023-01-26T03:34:12;-0.70;1.00
9949;DHT22;5013;51.840;8.276;2023-01-26T03:36:37;-0.70;1.00
9949;DHT22;5013;51.840;8.276;2023-01-26T03:39:04;-0.70;1.00
9949;DHT22;5013;51.840;8.276;2023-01-26T03:41:29;-0.60;1.00
9949;DHT22;5013;51.840;8.276;2023-01-26T03:44:13;-0.70;1.00
9949;DHT22;5013;51.840;8.276;2023-01-26T03:46:57;-0.70;1.00
9949;DHT22;5013;51.840;8.276;2023-01-26T03:49:41;-0.70;1.00
9949;DHT22;5013;51.840;8.276;2023-01-26T03:52:25;-0.70;1.00
9949;DHT22;5013;51.840;8.276;2023-01-26T03:55:09;-0.70;1.00
9949;DHT22;5013;51.840;8.276;2023-01-26T03:57:53;-0.70;1.00
9949;DHT22;5013;51.840;8.276;2023-01-26T04:00:19;-0.70;1.00
9949;DHT22;5013;51.840;8.276;2023-01-26T04:02:46;-0.70;1.00
9949;DHT22;5013;51.840;8.276;2023-01-26T04:05:30;-0.60;1.00
9949;DHT22;5013;51.840;8.276;2023-01-26T04:08:14;-0.50;1.00
9949;DHT22;5013;51.840;8.276;2023-01-26T04:10:55;-0.60;1.00
9949;DHT22;5013;51.840;8.276;2023-01-26T04:13:22;-0.60;1.00
9949;DHT22;5013;51.840;8.276;2023-01-26T04:16:08;-0.60;1.00
9949;DHT22;5013;51.840;8.276;2023-01-26T04:18:53;-0.60;1.00
9949;DHT22;5013;51.840;8.276;2023-01-26T04:21:38;-0.60;1.00
9949;DHT22;5013;51.840;8.276;2023-01-26T04:24:05;-0.60;1.00
9949;DHT22;5013;51.840;8.276;2023-01-26T04:26:41;-0.60;1.00
9949;DHT22;5013;51.840;8.276;2023-01-26T04:29:09;-0.60;1.00
9949;DHT22;5013;51.840;8.276;2023-01-26T04:31:35;-0.70;1.00
9949;DHT22;5013;51.840;8.276;2023-01-26T04:34:03;-0.60;1.00
9949;DHT22;5013;51.840;8.276;2023-01-26T04:36:29;-0.60;1.00
9949;DHT22;5013;51.840;8.276;2023-01-26T04:38:55;-0.60;1.00
9949;DHT22;5013;51.840;8.276;2023-01-26T04:41:21;-0.60;1.00
9949;DHT22;5013;51.840;8.276;2023-01-26T04:43:46;-0.50;1.00
9949;DHT22;5013;51.840;8.276;2023-01-26T04:46:13;-0.50;1.00
9949;DHT22;5013;51.840;8.276;2023-01-26T04:48:38;-0.50;1.00
9949;DHT22;5013;51.840;8.276;2023-01-26T04:51:07;-0.50;1.00
9949;DHT22;5013;51.840;8.276;2023-01-26T04:53:33;-0.50;1.00
9949;DHT22;5013;51.840;8.276;2023-01-26T04:55:58;-0.50;1.00
9949;DHT22;5013;51.840;8.276;2023-01-26T04:58:24;-0.50;1.00
9949;DHT22;5013;51.840;8.276;2023-01-26T05:00:51;-0.60;1.00
9949;DHT22;5013;51.840;8.276;2023-01-26T05:03:18;-0.50;1.00
9949;DHT22;5013;51.840;8.276;2023-01-26T05:05:46;-0.50;1.00
9949;DHT22;5013;51.840;8.276;2023-01-26T05:08:12;-0.50;1.00
9949;DHT22;5013;51.840;8.276;2023-01-26T05:10:38;-0.50;1.00
9949;DHT22;5013;51.840;8.276;2023-01-26T05:13:03;-0.50;1.00
9949;DHT22;5013;51.840;8.276;2023-01-26T05:15:29;-0.50;1.00
9949;DHT22;5013;51.840;8.276;2023-01-26T05:17:57;-0.60;1.00
9949;DHT22;5013;51.840;8.276;2023-01-26T05:20:23;-0.60;1.00
9949;DHT22;5013;51.840;8.276;2023-01-26T05:22:49;-0.60;1.00
9949;DHT22;5013;51.840;8.276;2023-01-26T05:25:14;-0.60;1.00
9949;DHT22;5013;51.840;8.276;2023-01-26T05:27:40;-0.50;15.20
9949;DHT22;5013;51.840;8.276;2023-01-26T05:30:06;-0.50;5.10
9949;DHT22;5013;51.840;8.276;2023-01-26T05:32:32;-0.50;5.70
9949;DHT22;5013;51.840;8.276;2023-01-26T05:34:58;-0.60;1.00
9949;DHT22;5013;51.840;8.276;2023-01-26T05:37:24;-0.60;1.00
9949;DHT22;5013;51.840;8.276;2023-01-26T05:39:50;-0.60;5.70
9949;DHT22;5013;51.840;8.276;2023-01-26T05:42:16;-0.50;24.00
9949;DHT22;5013;51.840;8.276;2023-01-26T05:44:41;-0.50;31.20
9949;DHT22;5013;51.840;8.276;2023-01-26T05:47:07;-0.50;23.80
9949;DHT22;5013;51.840;8.276;2023-01-26T05:49:33;-0.60;5.90
9949;DHT22;5013;51.840;8.276;2023-01-26T05:51:59;-0.60;14.60
9949;DHT22;5013;51.840;8.276;2023-01-26T05:54:24;-0.60;39.40
9949;DHT22;5013;51.840;8.276;2023-01-26T05:56:50;-0.60;58.80
9949;DHT22;5013;51.840;8.276;2023-01-26T05:59:20;-0.50;71.10
9949;DHT22;5013;51.840;8.276;2023-01-26T06:01:46;-0.50;84.70
9949;DHT22;5013;51.840;8.276;2023-01-26T06:04:11;-0.50;80.60
9949;DHT22;5013;51.840;8.276;2023-01-26T06:06:37;-0.60;83.80
9949;DHT22;5013;51.840;8.276;2023-01-26T06:09:02;-0.60;93.30
9949;DHT22;5013;51.840;8.276;2023-01-26T06:11:28;-0.60;96.80
9949;DHT22;5013;51.840;8.276;2023-01-26T06:13:55;-0.60;99.90
9949;DHT22;5013;51.840;8.276;2023-01-26T06:16:21;-0.60;99.90
9949;DHT22;5013;51.840;8.276;2023-01-26T06:18:47;-0.50;99.90
9949;DHT22;5013;51.840;8.276;2023-01-26T06:21:13;-0.50;99.90
9949;DHT22;5013;51.840;8.276;2023-01-26T06:23:39;-0.50;99.90
9949;DHT22;5013;51.840;8.276;2023-01-26T06:26:04;-0.50;99.90
9949;DHT22;5013;51.840;8.276;2023-01-26T06:28:32;-0.50;99.90
9949;DHT22;5013;51.840;8.276;2023-01-26T06:31:02;-0.60;99.90
9949;DHT22;5013;51.840;8.276;2023-01-26T06:33:30;-0.60;99.90
9949;DHT22;5013;51.840;8.276;2023-01-26T06:35:57;-0.60;99.90
9949;DHT22;5013;51.840;8.276;2023-01-26T06:38:25;-0.50;99.90
9949;DHT22;5013;51.840;8.276;2023-01-26T06:40:50;-0.50;99.90
9949;DHT22;5013;51.840;8.276;2023-01-26T06:43:16;-0.50;99.90
9949;DHT22;5013;51.840;8.276;2023-01-26T06:45:42;-0.50;99.90
9949;DHT22;5013;51.840;8.276;2023-01-26T06:48:07;-0.40;99.90
9949;DHT22;5013;51.840;8.276;2023-01-26T06:50:34;-0.50;99.90
9949;DHT22;5013;51.840;8.276;2023-01-26T06:53:03;-0.40;99.90
9949;DHT22;5013;51.840;8.276;2023-01-26T06:55:42;-0.40;99.90
9949;DHT22;5013;51.840;8.276;2023-01-26T06:58:07;-0.40;99.90
9949;DHT22;5013;51.840;8.276;2023-01-26T07:00:33;-0.40;99.90
9949;DHT22;5013;51.840;8.276;2023-01-26T07:02:59;-0.40;99.90
9949;DHT22;5013;51.840;8.276;2023-01-26T07:05:24;-0.40;99.90
9949;DHT22;5013;51.840;8.276;2023-01-26T07:07:50;-0.40;99.90
9949;DHT22;5013;51.840;8.276;2023-01-26T07:10:15;-0.30;99.90
9949;DHT22;5013;51.840;8.276;2023-01-26T07:12:44;-0.20;99.90
9949;DHT22;5013;51.840;8.276;2023-01-26T07:15:11;-0.20;99.90
9949;DHT22;5013;51.840;8.276;2023-01-26T07:17:38;-0.20;99.90
9949;DHT22;5013;51.840;8.276;2023-01-26T07:20:04;-0.20;99.90
9949;DHT22;5013;51.840;8.276;2023-01-26T07:22:29;-0.20;99.90
9949;DHT22;5013;51.840;8.276;2023-01-26T07:24:55;-0.20;99.90
9949;DHT22;5013;51.840;8.276;2023-01-26T07:27:21;-0.20;99.90
9949;DHT22;5013;51.840;8.276;2023-01-26T07:29:46;-0.20;99.90
9949;DHT22;5013;51.840;8.276;2023-01-26T07:32:12;-0.20;99.90
9949;DHT22;5013;51.840;8.276;2023-01-26T07:34:37;-0.10;99.90
9949;DHT22;5013;51.840;8.276;2023-01-26T07:37:03;-0.20;99.90
9949;DHT22;5013;51.840;8.276;2023-01-26T07:39:30;-0.20;99.90
9949;DHT22;5013;51.840;8.276;2023-01-26T07:41:55;-0.20;99.90
9949;DHT22;5013;51.840;8.276;2023-01-26T07:44:21;-0.20;99.90
9949;DHT22;5013;51.840;8.276;2023-01-26T07:46:46;-0.20;99.90
9949;DHT22;5013;51.840;8.276;2023-01-26T07:49:12;-0.20;99.90
9949;DHT22;5013;51.840;8.276;2023-01-26T07:51:37;-0.10;99.90
9949;DHT22;5013;51.840;8.276;2023-01-26T07:54:04;-0.10;99.90
9949;DHT22;5013;51.840;8.276;2023-01-26T07:56:30;-0.10;99.90
9949;DHT22;5013;51.840;8.276;2023-01-26T07:58:56;-0.10;99.90
9949;DHT22;5013;51.840;8.276;2023-01-26T08:01:22;-0.20;99.90
9949;DHT22;5013;51.840;8.276;2023-01-26T08:03:51;-0.20;99.90
9949;DHT22;5013;51.840;8.276;2023-01-26T08:06:18;-0.20;99.90
9949;DHT22;5013;51.840;8.276;2023-01-26T08:08:45;-0.20;99.90
9949;DHT22;5013;51.840;8.276;2023-01-26T08:11:11;-0.20;99.90
9949;DHT22;5013;51.840;8.276;2023-01-26T08:13:37;-0.10;99.90
9949;DHT22;5013;51.840;8.276;2023-01-26T08:16:05;-0.10;99.90
9949;DHT22;5013;51.840;8.276;2023-01-26T08:18:31;-0.10;99.90
9949;DHT22;5013;51.840;8.276;2023-01-26T08:20:58;-0.10;99.90
9949;DHT22;5013;51.840;8.276;2023-01-26T08:23:24;-0.20;99.90
9949;DHT22;5013;51.840;8.276;2023-01-26T08:25:50;-0.20;99.90
9949;DHT22;5013;51.840;8.276;2023-01-26T08:28:16;-0.10;99.90
9949;DHT22;5013;51.840;8.276;2023-01-26T08:30:41;-0.10;99.90
9949;DHT22;5013;51.840;8.276;2023-01-26T08:33:07;-0.10;99.90
9949;DHT22;5013;51.840;8.276;2023-01-26T08:35:33;0.00;99.90
9949;DHT22;5013;51.840;8.276;2023-01-26T08:37:59;0.00;99.90
9949;DHT22;5013;51.840;8.276;2023-01-26T08:40:25;0.00;99.90
9949;DHT22;5013;51.840;8.276;2023-01-26T08:42:51;0.00;99.90
9949;DHT22;5013;51.840;8.276;2023-01-26T08:45:17;0.00;99.90
9949;DHT22;5013;51.840;8.276;2023-01-26T08:47:43;-0.10;99.90
9949;DHT22;5013;51.840;8.276;2023-01-26T08:50:10;-0.10;99.90
9949;DHT22;5013;51.840;8.276;2023-01-26T08:52:36;0.00;99.90
9949;DHT22;5013;51.840;8.276;2023-01-26T08:55:02;0.00;99.90
9949;DHT22;5013;51.840;8.276;2023-01-26T08:57:29;0.10;99.90
9949;DHT22;5013;51.840;8.276;2023-01-26T08:59:54;0.10;99.90
9949;DHT22;5013;51.840;8.276;2023-01-26T09:02:20;0.10;99.90
9949;DHT22;5013;51.840;8.276;2023-01-26T09:04:45;0.00;99.90
9949;DHT22;5013;51.840;8.276;2023-01-26T09:07:11;0.10;99.90
9949;DHT22;5013;51.840;8.276;2023-01-26T09:09:36;0.10;99.90
9949;DHT22;5013;51.840;8.276;2023-01-26T09:12:02;0.10;99.90
9949;DHT22;5013;51.840;8.276;2023-01-26T09:14:28;0.10;99.90
9949;DHT22;5013;51.840;8.276;2023-01-26T09:16:54;0.10;99.90
9949;DHT22;5013;51.840;8.276;2023-01-26T09:19:20;0.20;99.90
9949;DHT22;5013;51.840;8.276;2023-01-26T09:21:45;0.30;99.90
9949;DHT22;5013;51.840;8.276;2023-01-26T09:24:11;0.30;99.90
9949;DHT22;5013;51.840;8.276;2023-01-26T09:26:36;0.30;99.90
9949;DHT22;5013;51.840;8.276;2023-01-26T09:29:02;0.30;99.90
9949;DHT22;5013;51.840;8.276;2023-01-26T09:31:28;0.30;99.90
9949;DHT22;5013;51.840;8.276;2023-01-26T09:33:53;0.40;99.90
9949;DHT22;5013;51.840;8.276;2023-01-26T09:36:19;0.40;99.90
9949;DHT22;5013;51.840;8.276;2023-01-26T09:38:44;0.40;99.90
9949;DHT22;5013;51.840;8.276;2023-01-26T09:43:56;0.40;99.90
9949;DHT22;5013;51.840;8.276;2023-01-26T09:52:15;0.70;99.90
9949;DHT22;5013;51.840;8.276;2023-01-26T09:54:50;0.70;99.90
9949;DHT22;5013;51.840;8.276;2023-01-26T09:57:22;0.70;99.90
9949;DHT22;5013;51.840;8.276;2023-01-26T09:59:57;0.80;99.90
9949;DHT22;5013;51.840;8.276;2023-01-26T10:05:03;0.70;99.90
9949;DHT22;5013;51.840;8.276;2023-01-26T10:07:31;0.70;99.90
9949;DHT22;5013;51.840;8.276;2023-01-26T10:09:58;0.70;99.90
9949;DHT22;5013;51.840;8.276;2023-01-26T10:12:35;0.70;99.90
9949;DHT22;5013;51.840;8.276;2023-01-26T10:17:44;0.70;99.90
9949;DHT22;5013;51.840;8.276;2023-01-26T10:22:47;0.70;99.90
9949;DHT22;5013;51.840;8.276;2023-01-26T10:27:48;0.70;99.90
9949;DHT22;5013;51.840;8.276;2023-01-26T10:30:15;0.70;99.90
9949;DHT22;5013;51.840;8.276;2023-01-26T10:32:42;0.60;99.90
9949;DHT22;5013;51.840;8.276;2023-01-26T10:35:17;0.60;99.90
9949;DHT22;5013;51.840;8.276;2023-01-26T10:37:43;0.70;99.90
9949;DHT22;5013;51.840;8.276;2023-01-26T10:40:09;0.60;99.90
9949;DHT22;5013;51.840;8.276;2023-01-26T10:42:36;0.60;99.90
9949;DHT22;5013;51.840;8.276;2023-01-26T10:45:24;0.60;99.90
9949;DHT22;5013;51.840;8.276;2023-01-26T10:48:21;0.60;99.90
9949;DHT22;5013;51.840;8.276;2023-01-26T10:50:52;0.70;99.90
9949;DHT22;5013;51.840;8.276;2023-01-26T10:53:28;0.70;99.90
9949;DHT22;5013;51.840;8.276;2023-01-26T10:58:46;0.70;99.90
9949;DHT22;5013;51.840;8.276;2023-01-26T11:01:14;0.80;99.90
9949;DHT22;5013;51.840;8.276;2023-01-26T11:03:59;0.80;99.90
9949;DHT22;5013;51.840;8.276;2023-01-26T11:06:29;0.90;99.90
9949;DHT22;5013;51.840;8.276;2023-01-26T11:09:26;0.90;99.90
9949;DHT22;5013;51.840;8.276;2023-01-26T11:11:58;1.00;99.90
9949;DHT22;5013;51.840;8.276;2023-01-26T11:14:26;0.90;88.50
9949;DHT22;5013;51.840;8.276;2023-01-26T11:17:18;1.00;99.90
9949;DHT22;5013;51.840;8.276;2023-01-26T11:20:05;1.00;56.00
9949;DHT22;5013;51.840;8.276;2023-01-26T11:25:23;1.10;99.90
9949;DHT22;5013;51.840;8.276;2023-01-26T11:28:10;1.10;61.80
9949;DHT22;5013;51.840;8.276;2023-01-26T11:39:22;1.20;57.00
9949;DHT22;5013;51.840;8.276;2023-01-26T11:42:06;1.10;79.00
9949;DHT22;5013;51.840;8.276;2023-01-26T11:48:00;1.10;94.10
9949;DHT22;5013;51.840;8.276;2023-01-26T12:00:55;1.10;24.70
9949;DHT22;5013;51.840;8.276;2023-01-26T12:03:43;1.00;39.40
9949;DHT22;5013;51.840;8.276;2023-01-26T12:06:36;0.90;90.40
9949;DHT22;5013;51.840;8.276;2023-01-26T12:11:38;1.00;99.90
9949;DHT22;5013;51.840;8.276;2023-01-26T12:17:19;1.00;99.90
9949;DHT22;5013;51.840;8.276;2023-01-26T12:22:48;0.90;99.90
9949;DHT22;5013;51.840;8.276;2023-01-26T12:25:37;0.90;99.90
9949;DHT22;5013;51.840;8.276;2023-01-26T12:28:20;1.10;99.90
9949;DHT22;5013;51.840;8.276;2023-01-26T12:31:25;1.10;99.90
9949;DHT22;5013;51.840;8.276;2023-01-26T12:33:53;1.10;99.90
9949;DHT22;5013;51.840;8.276;2023-01-26T12:39:20;1.00;99.90
9949;DHT22;5013;51.840;8.276;2023-01-26T12:47:39;1.00;99.90
9949;DHT22;5013;51.840;8.276;2023-01-26T12:52:47;0.90;99.90
9949;DHT22;5013;51.840;8.276;2023-01-26T12:58:02;1.00;99.90
9949;DHT22;5013;51.840;8.276;2023-01-26T13:02:59;1.20;99.90
9949;DHT22;5013;51.840;8.276;2023-01-26T13:05:34;1.20;99.90
9949;DHT22;5013;51.840;8.276;2023-01-26T13:11:03;1.10;99.90
9949;DHT22;5013;51.840;8.276;2023-01-26T13:18:51;1.00;99.90
9949;DHT22;5013;51.840;8.276;2023-01-26T13:27:16;1.20;99.90
9949;DHT22;5013;51.840;8.276;2023-01-26T13:29:32;1.10;99.90
9949;DHT22;5013;51.840;8.276;2023-01-26T13:34:42;1.20;99.90
9949;DHT22;5013;51.840;8.276;2023-01-26T13:37:23;1.10;99.90
9949;DHT22;5013;51.840;8.276;2023-01-26T13:39:58;1.20;99.90
9949;DHT22;5013;51.840;8.276;2023-01-26T13:42:28;1.20;99.90
9949;DHT22;5013;51.840;8.276;2023-01-26T13:44:59;1.20;99.90
9949;DHT22;5013;51.840;8.276;2023-01-26T13:47:32;1.20;99.90
9949;DHT22;5013;51.840;8.276;2023-01-26T13:49:59;1.20;99.90
9949;DHT22;5013;51.840;8.276;2023-01-26T13:52:26;1.20;99.90
9949;DHT22;5013;51.840;8.276;2023-01-26T13:54:54;1.10;99.90
9949;DHT22;5013;51.840;8.276;2023-01-26T13:57:27;1.00;99.90
9949;DHT22;5013;51.840;8.276;2023-01-26T13:59:57;1.10;99.90
9949;DHT22;5013;51.840;8.276;2023-01-26T14:02:32;1.20;99.90
9949;DHT22;5013;51.840;8.276;2023-01-26T14:04:59;1.20;99.90
9949;DHT22;5013;51.840;8.276;2023-01-26T14:07:45;1.20;99.90
9949;DHT22;5013;51.840;8.276;2023-01-26T14:10:16;1.20;99.90
9949;DHT22;5013;51.840;8.276;2023-01-26T14:12:45;1.20;99.90
9949;DHT22;5013;51.840;8.276;2023-01-26T14:15:25;1.20;99.90
9949;DHT22;5013;51.840;8.276;2023-01-26T14:18:02;1.20;99.90
9949;DHT22;5013;51.840;8.276;2023-01-26T14:20:31;1.10;99.90
9949;DHT22;5013;51.840;8.276;2023-01-26T14:25:35;1.20;99.90
9949;DHT22;5013;51.840;8.276;2023-01-26T14:28:01;1.20;99.90
9949;DHT22;5013;51.840;8.276;2023-01-26T14:30:28;1.10;99.90
9949;DHT22;5013;51.840;8.276;2023-01-26T14:33:01;1.20;99.90
9949;DHT22;5013;51.840;8.276;2023-01-26T14:35:28;1.30;99.90
9949;DHT22;5013;51.840;8.276;2023-01-26T14:38:14;1.30;99.90
9949;DHT22;5013;51.840;8.276;2023-01-26T14:43:11;1.30;99.90
9949;DHT22;5013;51.840;8.276;2023-01-26T14:45:43;1.30;99.90
9949;DHT22;5013;51.840;8.276;2023-01-26T14:48:15;1.30;99.90
9949;DHT22;5013;51.840;8.276;2023-01-26T14:50:43;1.30;99.90
9949;DHT22;5013;51.840;8.276;2023-01-26T14:53:21;1.30;99.90
9949;DHT22;5013;51.840;8.276;2023-01-26T14:55:48;1.40;99.90
9949;DHT22;5013;51.840;8.276;2023-01-26T14:58:27;1.40;99.90
9949;DHT22;5013;51.840;8.276;2023-01-26T15:00:56;1.40;99.90
9949;DHT22;5013;51.840;8.276;2023-01-26T15:03:26;1.40;99.90
9949;DHT22;5013;51.840;8.276;2023-01-26T15:08:34;1.40;99.90
9949;DHT22;5013;51.840;8.276;2023-01-26T15:11:00;1.40;99.90
9949;DHT22;5013;51.840;8.276;2023-01-26T15:13:47;1.50;99.90
9949;DHT22;5013;51.840;8.276;2023-01-26T15:16:16;1.50;99.90
9949;DHT22;5013;51.840;8.276;2023-01-26T15:18:43;1.50;99.90
9949;DHT22;5013;51.840;8.276;2023-01-26T15:21:18;1.40;99.90
9949;DHT22;5013;51.840;8.276;2023-01-26T15:23:48;1.40;99.90
9949;DHT22;5013;51.840;8.276;2023-01-26T15:26:30;1.40;99.90
9949;DHT22;5013;51.840;8.276;2023-01-26T15:28:59;1.40;99.90
9949;DHT22;5013;51.840;8.276;2023-01-26T15:31:39;1.40;99.90
9949;DHT22;5013;51.840;8.276;2023-01-26T15:34:38;1.40;99.90
9949;DHT22;5013;51.840;8.276;2023-01-26T15:37:31;1.50;99.90
9949;DHT22;5013;51.840;8.276;2023-01-26T15:39:58;1.40;99.90
9949;DHT22;5013;51.840;8.276;2023-01-26T15:42:25;1.40;99.90
9949;DHT22;5013;51.840;8.276;2023-01-26T15:44:53;1.40;99.90
9949;DHT22;5013;51.840;8.276;2023-01-26T15:47:19;1.40;99.90
9949;DHT22;5013;51.840;8.276;2023-01-26T15:49:44;1.50;99.90
9949;DHT22;5013;51.840;8.276;2023-01-26T15:52:15;1.40;99.90
9949;DHT22;5013;51.840;8.276;2023-01-26T15:54:41;1.30;99.90
9949;DHT22;5013;51.840;8.276;2023-01-26T15:57:11;1.30;99.90
9949;DHT22;5013;51.840;8.276;2023-01-26T15:59:38;1.30;99.90
9949;DHT22;5013;51.840;8.276;2023-01-26T16:02:13;1.40;99.90
9949;DHT22;5013;51.840;8.276;2023-01-26T16:04:39;1.40;99.90
9949;DHT22;5013;51.840;8.276;2023-01-26T16:07:12;1.50;99.90
9949;DHT22;5013;51.840;8.276;2023-01-26T16:09:38;1.40;99.90
9949;DHT22;5013;51.840;8.276;2023-01-26T16:12:04;1.50;99.90
9949;DHT22;5013;51.840;8.276;2023-01-26T16:14:30;1.50;99.90
9949;DHT22;5013;51.840;8.276;2023-01-26T16:16:55;1.50;99.90
9949;DHT22;5013;51.840;8.276;2023-01-26T16:19:21;1.50;99.90
9949;DHT22;5013;51.840;8.276;2023-01-26T16:21:46;1.50;99.90
9949;DHT22;5013;51.840;8.276;2023-01-26T16:24:12;1.40;99.90
9949;DHT22;5013;51.840;8.276;2023-01-26T16:26:37;1.40;99.90
9949;DHT22;5013;51.840;8.276;2023-01-26T16:29:03;1.40;99.90
9949;DHT22;5013;51.840;8.276;2023-01-26T16:31:31;1.40;99.90
9949;DHT22;5013;51.840;8.276;2023-01-26T16:33:58;1.40;99.90
9949;DHT22;5013;51.840;8.276;2023-01-26T16:36:25;1.50;99.90
9949;DHT22;5013;51.840;8.276;2023-01-26T16:38:51;1.50;99.90
9949;DHT22;5013;51.840;8.276;2023-01-26T16:41:25;1.50;99.90
9949;DHT22;5013;51.840;8.276;2023-01-26T16:43:54;1.50;99.90
9949;DHT22;5013;51.840;8.276;2023-01-26T16:46:20;1.40;99.90
9949;DHT22;5013;51.840;8.276;2023-01-26T16:48:46;1.40;99.90
9949;DHT22;5013;51.840;8.276;2023-01-26T16:51:21;1.50;99.90
9949;DHT22;5013;51.840;8.276;2023-01-26T16:53:48;1.50;99.90
9949;DHT22;5013;51.840;8.276;2023-01-26T16:56:14;1.50;99.90
9949;DHT22;5013;51.840;8.276;2023-01-26T16:58:41;1.50;99.90
9949;DHT22;5013;51.840;8.276;2023-01-26T17:01:20;1.60;99.90
9949;DHT22;5013;51.840;8.276;2023-01-26T17:03:46;1.60;99.90
9949;DHT22;5013;51.840;8.276;2023-01-26T17:06:14;1.50;99.90
9949;DHT22;5013;51.840;8.276;2023-01-26T17:08:40;1.50;99.90
9949;DHT22;5013;51.840;8.276;2023-01-26T17:11:07;1.60;99.90
9949;DHT22;5013;51.840;8.276;2023-01-26T17:13:34;1.60;99.90
9949;DHT22;5013;51.840;8.276;2023-01-26T17:16:00;1.60;99.90
9949;DHT22;5013;51.840;8.276;2023-01-26T17:18:26;1.60;99.90
9949;DHT22;5013;51.840;8.276;2023-01-26T17:20:51;1.60;99.90
9949;DHT22;5013;51.840;8.276;2023-01-26T17:23:17;1.60;99.90
9949;DHT22;5013;51.840;8.276;2023-01-26T17:25:42;1.60;99.90
9949;DHT22;5013;51.840;8.276;2023-01-26T17:28:08;1.60;99.90
9949;DHT22;5013;51.840;8.276;2023-01-26T17:30:33;1.60;99.90
9949;DHT22;5013;51.840;8.276;2023-01-26T17:32:59;1.60;99.90
9949;DHT22;5013;51.840;8.276;2023-01-26T17:35:26;1.50;99.90
9949;DHT22;5013;51.840;8.276;2023-01-26T17:37:51;1.50;99.90
9949;DHT22;5013;51.840;8.276;2023-01-26T17:40:17;1.50;99.90
9949;DHT22;5013;51.840;8.276;2023-01-26T17:42:42;1.50;99.90
9949;DHT22;5013;51.840;8.276;2023-01-26T17:45:08;1.60;99.90
9949;DHT22;5013;51.840;8.276;2023-01-26T17:47:34;1.60;99.90
9949;DHT22;5013;51.840;8.276;2023-01-26T17:50:00;1.70;99.90
9949;DHT22;5013;51.840;8.276;2023-01-26T17:52:26;1.60;99.90
9949;DHT22;5013;51.840;8.276;2023-01-26T17:54:51;1.60;99.90
9949;DHT22;5013;51.840;8.276;2023-01-26T17:57:17;1.60;99.90
9949;DHT22;5013;51.840;8.276;2023-01-26T17:59:43;1.60;99.90
9949;DHT22;5013;51.840;8.276;2023-01-26T18:02:10;1.70;99.90
9949;DHT22;5013;51.840;8.276;2023-01-26T18:04:36;1.70;99.90
9949;DHT22;5013;51.840;8.276;2023-01-26T18:07:01;1.70;99.90
9949;DHT22;5013;51.840;8.276;2023-01-26T18:09:27;1.70;99.90
9949;DHT22;5013;51.840;8.276;2023-01-26T18:11:53;1.70;99.90
9949;DHT22;5013;51.840;8.276;2023-01-26T18:14:19;1.60;99.90